createdAt,value
2022-09-30T00:00:40.521Z,16.53
2022-09-30T00:03:07.910Z,16.48
2022-09-30T00:05:37.182Z,16.41
2022-09-30T00:08:04.633Z,16.34
2022-09-30T00:10:33.538Z,16.38
2022-09-30T00:13:00.784Z,16.40
2022-09-30T00:15:28.521Z,16.43
2022-09-30T00:17:55.868Z,16.49
2022-09-30T00:20:23.300Z,16.55
2022-09-30T00:22:50.606Z,16.60
2022-09-30T00:25:18.584Z,16.68
2022-09-30T00:27:45.830Z,16.75
2022-09-30T00:30:12.988Z,16.79
2022-09-30T00:32:40.580Z,16.85
2022-09-30T00:35:08.046Z,16.88
2022-09-30T00:37:35.533Z,16.90
2022-09-30T00:40:02.870Z,16.89
2022-09-30T00:42:31.784Z,16.88
2022-09-30T00:45:06.073Z,16.86
2022-09-30T00:47:51.762Z,16.82
2022-09-30T00:50:26.265Z,16.79
2022-09-30T00:53:29.903Z,16.75
2022-09-30T00:56:07.466Z,16.71
2022-09-30T00:58:40.187Z,16.70
2022-09-30T01:01:07.571Z,16.70
2022-09-30T01:03:50.475Z,16.66
2022-09-30T01:06:18.923Z,16.66
2022-09-30T01:08:48.003Z,16.64
2022-09-30T01:11:15.490Z,16.62
2022-09-30T01:13:45.468Z,16.60
2022-09-30T01:16:37.489Z,16.56
2022-09-30T01:19:29.499Z,16.52
2022-09-30T01:22:24.780Z,16.49
2022-09-30T01:24:57.717Z,16.45
2022-09-30T01:28:15.906Z,16.42
2022-09-30T01:31:43.969Z,16.40
2022-09-30T01:34:19.944Z,16.34
2022-09-30T01:37:10.846Z,16.31
2022-09-30T01:40:04.025Z,16.29
2022-09-30T01:42:52.041Z,16.27
2022-09-30T01:45:33.540Z,16.23
2022-09-30T01:48:06.524Z,16.21
2022-09-30T01:50:56.268Z,16.21
2022-09-30T01:53:34.033Z,16.21
2022-09-30T01:56:06.336Z,16.21
2022-09-30T01:58:58.172Z,16.19
2022-09-30T02:01:39.250Z,16.19
2022-09-30T02:04:19.773Z,16.20
2022-09-30T02:06:52.369Z,16.16
2022-09-30T02:09:28.587Z,16.16
2022-09-30T02:11:56.554Z,16.20
2022-09-30T02:14:28.582Z,16.21
2022-09-30T02:17:02.334Z,16.25
2022-09-30T02:19:51.118Z,16.29
2022-09-30T02:22:21.542Z,16.31
2022-09-30T02:24:55.588Z,16.35
2022-09-30T02:27:32.003Z,16.39
2022-09-30T02:30:00.844Z,16.43
2022-09-30T02:32:31.939Z,16.49
2022-09-30T02:35:06.578Z,16.56
2022-09-30T02:37:39.470Z,16.61
2022-09-30T02:40:10.440Z,16.68
2022-09-30T02:42:38.781Z,16.77
2022-09-30T02:45:10.295Z,16.81
2022-09-30T02:47:55.894Z,16.88
2022-09-30T02:50:31.524Z,16.95
2022-09-30T02:53:18.914Z,16.99
2022-09-30T02:55:51.437Z,17.04
2022-09-30T02:58:21.406Z,17.07
2022-09-30T03:00:52.935Z,17.12
2022-09-30T03:03:23.286Z,17.16
2022-09-30T03:05:53.636Z,17.20
2022-09-30T03:08:21.279Z,17.24
2022-09-30T03:10:50.980Z,17.28
2022-09-30T03:13:31.773Z,17.30
2022-09-30T03:15:59.492Z,17.30
2022-09-30T03:18:45.630Z,17.33
2022-09-30T03:21:32.128Z,17.34
2022-09-30T03:24:17.190Z,17.38
2022-09-30T03:27:06.516Z,17.41
2022-09-30T03:29:36.630Z,17.39
2022-09-30T03:32:30.046Z,17.41
2022-09-30T03:35:03.380Z,17.41
2022-09-30T03:37:49.291Z,17.43
2022-09-30T03:40:22.394Z,17.45
2022-09-30T03:43:20.530Z,17.46
2022-09-30T03:46:01.267Z,17.46
2022-09-30T03:48:29.689Z,17.48
2022-09-30T03:50:57.223Z,17.51
2022-09-30T03:53:27.870Z,17.54
2022-09-30T03:55:55.277Z,17.63
2022-09-30T03:58:23.622Z,17.70
2022-09-30T04:00:53.311Z,17.78
2022-09-30T04:03:22.074Z,17.85
2022-09-30T04:05:51.501Z,17.95
2022-09-30T04:08:18.722Z,18.07
2022-09-30T04:10:46.067Z,18.20
2022-09-30T04:13:13.298Z,18.40
2022-09-30T04:15:40.713Z,18.68
2022-09-30T04:18:08.269Z,18.81
2022-09-30T04:20:35.546Z,18.99
2022-09-30T04:23:03.946Z,19.06
2022-09-30T04:25:31.264Z,19.07
2022-09-30T04:27:58.540Z,19.03
2022-09-30T04:30:29.042Z,19.00
2022-09-30T04:32:58.775Z,18.95
2022-09-30T04:35:28.392Z,18.92
2022-09-30T04:37:55.629Z,18.88
2022-09-30T04:40:23.114Z,18.84
2022-09-30T04:42:50.298Z,18.76
2022-09-30T04:45:17.580Z,18.72
2022-09-30T04:47:47.597Z,18.67
2022-09-30T04:50:17.064Z,18.64
2022-09-30T04:52:44.501Z,18.60
2022-09-30T04:55:11.916Z,18.59
2022-09-30T04:57:39.582Z,18.57
2022-09-30T05:00:09.364Z,18.55
2022-09-30T05:02:36.671Z,18.54
2022-09-30T05:05:04.722Z,18.52
2022-09-30T05:07:32.193Z,18.49
2022-09-30T05:09:59.476Z,18.46
2022-09-30T05:12:27.236Z,18.43
2022-09-30T05:14:55.094Z,18.42
2022-09-30T05:17:32.519Z,18.40
2022-09-30T05:20:02.837Z,18.38
2022-09-30T05:22:33.139Z,18.38
2022-09-30T05:25:00.323Z,18.37
2022-09-30T05:27:27.825Z,18.35
2022-09-30T05:29:55.358Z,18.36
2022-09-30T05:32:22.718Z,18.36
2022-09-30T05:34:54.506Z,18.35
2022-09-30T05:37:22.109Z,18.34
2022-09-30T05:39:49.670Z,18.31
2022-09-30T05:42:17.512Z,18.34
2022-09-30T05:44:44.873Z,18.34
2022-09-30T05:47:12.414Z,18.35
2022-09-30T05:49:42.215Z,18.37
2022-09-30T05:52:09.498Z,18.38
2022-09-30T05:54:36.717Z,18.40
2022-09-30T05:57:04.365Z,18.41
2022-09-30T05:59:31.671Z,18.40
2022-09-30T06:01:58.889Z,18.40
2022-09-30T06:04:27.605Z,18.38
2022-09-30T06:06:54.873Z,18.38
2022-09-30T06:09:24.162Z,18.38
2022-09-30T06:11:51.805Z,18.38
2022-09-30T06:14:21.924Z,18.39
2022-09-30T06:16:49.962Z,18.38
2022-09-30T06:19:17.213Z,18.37
2022-09-30T06:21:44.354Z,18.33
2022-09-30T06:24:13.264Z,18.35
2022-09-30T06:26:42.394Z,18.35
2022-09-30T06:29:09.684Z,18.33
2022-09-30T06:31:37.008Z,18.29
2022-09-30T06:34:04.713Z,18.29
2022-09-30T06:36:33.445Z,18.27
2022-09-30T06:39:05.011Z,18.28
2022-09-30T06:41:33.897Z,18.30
2022-09-30T06:44:05.993Z,18.27
2022-09-30T06:46:37.608Z,18.25
2022-09-30T06:49:13.696Z,18.24
2022-09-30T06:51:42.708Z,18.25
2022-09-30T06:54:10.592Z,18.24
2022-09-30T06:56:37.861Z,18.29
2022-09-30T06:59:05.589Z,18.29
2022-09-30T07:01:32.904Z,18.33
2022-09-30T07:04:08.057Z,18.41
2022-09-30T07:06:35.611Z,18.46
2022-09-30T07:09:02.957Z,18.54
2022-09-30T07:11:30.628Z,18.66
2022-09-30T07:13:57.916Z,18.84
2022-09-30T07:16:27.861Z,18.99
2022-09-30T07:18:55.193Z,19.13
2022-09-30T07:21:22.601Z,19.28
2022-09-30T07:23:49.797Z,19.44
2022-09-30T07:26:19.359Z,19.57
2022-09-30T07:28:47.435Z,19.65
2022-09-30T07:31:34.684Z,19.81
2022-09-30T07:34:07.068Z,19.99
2022-09-30T07:36:37.909Z,20.10
2022-09-30T07:39:08.488Z,20.09
2022-09-30T07:41:39.019Z,20.12
2022-09-30T07:44:12.256Z,20.11
2022-09-30T07:46:40.607Z,20.12
2022-09-30T07:49:14.610Z,20.25
2022-09-30T07:51:45.855Z,20.30
2022-09-30T07:54:16.037Z,20.31
2022-09-30T07:57:08.844Z,20.34
2022-09-30T07:59:35.299Z,20.39
2022-09-30T08:02:02.914Z,20.51
2022-09-30T08:04:30.689Z,20.65
2022-09-30T08:07:00.298Z,20.82
2022-09-30T08:09:29.967Z,20.96
2022-09-30T08:11:57.460Z,21.07
2022-09-30T08:14:26.888Z,21.22
2022-09-30T08:16:55.891Z,21.40
2022-09-30T08:19:24.624Z,21.55
2022-09-30T08:21:55.866Z,21.70
2022-09-30T08:24:30.362Z,21.88
2022-09-30T08:26:58.419Z,22.03
2022-09-30T08:32:13.230Z,22.16
2022-09-30T08:34:40.421Z,21.97
2022-09-30T08:37:12.717Z,21.75
2022-09-30T08:39:40.066Z,21.54
2022-09-30T08:42:35.957Z,21.27
2022-09-30T08:45:13.383Z,20.94
2022-09-30T08:48:02.554Z,20.72
2022-09-30T08:51:07.373Z,20.60
2022-09-30T08:53:43.031Z,20.49
2022-09-30T08:56:26.177Z,20.34
2022-09-30T08:58:57.147Z,20.24
2022-09-30T09:01:29.769Z,20.17
2022-09-30T09:03:59.819Z,20.06
2022-09-30T09:06:27.467Z,19.96
2022-09-30T09:09:19.521Z,19.77
2022-09-30T09:11:55.811Z,19.55
2022-09-30T09:14:28.597Z,19.39
2022-09-30T09:17:18.270Z,19.26
2022-09-30T09:20:05.627Z,19.14
2022-09-30T09:22:34.522Z,19.12
2022-09-30T09:25:02.226Z,19.12
2022-09-30T09:27:53.999Z,19.15
2022-09-30T09:30:23.352Z,19.16
2022-09-30T09:32:55.351Z,19.15
2022-09-30T09:35:22.991Z,19.16
2022-09-30T09:38:23.384Z,19.19
2022-09-30T09:41:12.881Z,19.23
2022-09-30T09:44:04.719Z,19.26
2022-09-30T09:46:45.637Z,19.26
2022-09-30T09:49:23.629Z,19.25
2022-09-30T09:52:05.876Z,19.23
2022-09-30T09:54:37.956Z,19.19
2022-09-30T09:57:09.412Z,19.18
2022-09-30T09:59:56.229Z,19.18
2022-09-30T10:02:31.684Z,19.20
2022-09-30T10:05:03.953Z,19.23
2022-09-30T10:07:33.320Z,19.26
2022-09-30T10:10:23.545Z,19.30
2022-09-30T10:12:51.749Z,19.35
2022-09-30T10:15:24.142Z,19.38
2022-09-30T10:17:57.854Z,19.43
2022-09-30T10:20:33.924Z,19.53
2022-09-30T10:23:16.409Z,19.59
2022-09-30T10:26:16.712Z,19.65
2022-09-30T10:28:59.682Z,19.69
2022-09-30T10:31:36.365Z,19.78
2022-09-30T10:34:29.976Z,20.00
2022-09-30T10:36:59.086Z,20.21
2022-09-30T10:39:29.250Z,20.39
2022-09-30T10:42:26.302Z,20.67
2022-09-30T10:45:01.998Z,20.91
2022-09-30T10:47:34.115Z,21.10
2022-09-30T10:50:27.833Z,21.26
2022-09-30T10:52:57.788Z,21.42
2022-09-30T10:55:29.245Z,21.65
2022-09-30T10:58:04.878Z,21.92
2022-09-30T11:00:35.631Z,22.12
2022-09-30T11:03:20.402Z,22.32
2022-09-30T11:05:49.971Z,22.45
2022-09-30T11:08:22.373Z,22.49
2022-09-30T11:11:14.252Z,22.44
2022-09-30T11:14:29.512Z,22.42
2022-09-30T11:17:10.681Z,22.36
2022-09-30T11:19:49.225Z,22.29
2022-09-30T11:22:28.631Z,22.25
2022-09-30T11:24:57.346Z,22.28
2022-09-30T11:27:27.676Z,22.34
2022-09-30T11:29:59.766Z,22.47
2022-09-30T11:32:41.982Z,22.59
2022-09-30T11:35:30.865Z,22.65
2022-09-30T11:38:10.347Z,22.67
2022-09-30T11:41:06.827Z,22.74
2022-09-30T11:44:08.185Z,22.72
2022-09-30T11:46:47.466Z,22.62
2022-09-30T11:49:28.455Z,22.52
2022-09-30T11:52:16.909Z,22.52
2022-09-30T11:55:06.537Z,22.54
2022-09-30T11:58:22.715Z,22.56
2022-09-30T12:01:21.836Z,22.58
2022-09-30T12:04:16.817Z,22.62
2022-09-30T12:06:53.343Z,22.77
2022-09-30T12:09:23.073Z,22.91
2022-09-30T12:12:10.243Z,23.01
2022-09-30T12:14:50.912Z,23.16
2022-09-30T12:17:26.889Z,23.30
2022-09-30T12:19:56.476Z,23.51
2022-09-30T12:22:23.806Z,23.57
2022-09-30T12:24:50.992Z,23.64
2022-09-30T12:30:18.083Z,23.84
2022-09-30T12:33:05.659Z,23.90
2022-09-30T12:35:54.589Z,23.90
2022-09-30T12:38:50.835Z,23.83
2022-09-30T12:41:27.142Z,23.63
2022-09-30T12:43:56.976Z,23.49
2022-09-30T12:46:39.583Z,23.33
2022-09-30T12:49:10.916Z,23.20
2022-09-30T12:51:42.951Z,23.08
2022-09-30T12:54:32.958Z,22.97
2022-09-30T12:57:04.072Z,22.87
2022-09-30T12:59:34.912Z,22.79
2022-09-30T13:02:04.316Z,22.73
2022-09-30T13:04:37.832Z,22.68
2022-09-30T13:07:08.330Z,22.66
2022-09-30T13:09:38.703Z,22.67
2022-09-30T13:12:06.652Z,22.69
2022-09-30T13:14:35.048Z,22.73
2022-09-30T13:17:08.409Z,22.79
2022-09-30T13:19:36.864Z,22.85
2022-09-30T13:22:32.408Z,22.90
2022-09-30T13:25:06.742Z,22.97
2022-09-30T13:27:41.810Z,23.04
2022-09-30T13:30:18.182Z,23.12
2022-09-30T13:33:04.980Z,23.24
2022-09-30T13:35:34.434Z,23.34
2022-09-30T13:38:10.642Z,23.53
2022-09-30T13:41:03.651Z,23.71
2022-09-30T13:43:39.899Z,23.87
2022-09-30T13:46:19.201Z,23.97
2022-09-30T13:48:55.274Z,24.10
2022-09-30T13:51:25.097Z,24.19
2022-09-30T13:53:55.563Z,24.06
2022-09-30T13:56:26.205Z,24.10
2022-09-30T13:58:53.425Z,24.19
2022-09-30T14:01:26.277Z,24.22
2022-09-30T14:04:47.915Z,24.19
2022-09-30T14:07:52.400Z,24.20
2022-09-30T14:10:43.952Z,24.13
2022-09-30T14:13:26.104Z,24.11
2022-09-30T14:16:06.440Z,24.02
2022-09-30T14:18:39.894Z,23.84
2022-09-30T14:21:20.394Z,23.65
2022-09-30T14:24:11.472Z,23.55
2022-09-30T14:27:03.230Z,23.46
2022-09-30T14:29:50.054Z,23.37
2022-09-30T14:32:20.897Z,23.33
2022-09-30T14:35:45.671Z,23.30
2022-09-30T14:38:32.768Z,23.15
2022-09-30T14:41:07.955Z,23.04
2022-09-30T14:43:42.577Z,22.94
2022-09-30T14:46:24.960Z,22.84
2022-09-30T14:48:53.520Z,22.76
2022-09-30T14:51:23.744Z,22.63
2022-09-30T14:53:57.058Z,22.56
2022-09-30T14:56:31.823Z,22.48
2022-09-30T14:59:00.960Z,22.36
2022-09-30T15:01:35.099Z,22.27
2022-09-30T15:04:11.456Z,22.15
2022-09-30T15:06:41.384Z,22.01
2022-09-30T15:09:17.862Z,21.87
2022-09-30T15:11:45.350Z,21.77
2022-09-30T15:14:16.181Z,21.64
2022-09-30T15:16:49.088Z,21.55
2022-09-30T15:19:23.787Z,21.42
2022-09-30T15:21:52.525Z,21.32
2022-09-30T15:24:21.887Z,21.26
2022-09-30T15:26:49.965Z,21.17
2022-09-30T15:29:17.616Z,21.08
2022-09-30T15:31:47.783Z,21.00
2022-09-30T15:34:20.499Z,20.93
2022-09-30T15:37:07.997Z,20.86
2022-09-30T15:39:59.502Z,20.81
2022-09-30T15:42:38.989Z,20.76
2022-09-30T15:45:35.588Z,20.72
2022-09-30T15:48:07.018Z,20.63
2022-09-30T15:50:49.594Z,20.57
2022-09-30T15:53:24.924Z,20.51
2022-09-30T15:55:55.698Z,20.47
2022-09-30T15:58:26.579Z,20.40
2022-09-30T16:00:55.020Z,20.27
2022-09-30T16:03:26.678Z,20.16
2022-09-30T16:06:07.879Z,20.05
2022-09-30T16:08:43.313Z,20.00
2022-09-30T16:11:20.572Z,19.93
2022-09-30T16:13:49.780Z,19.89
2022-09-30T16:16:24.068Z,19.94
2022-09-30T16:18:55.474Z,19.89
2022-09-30T16:21:44.147Z,19.86
2022-09-30T16:24:21.411Z,19.84
2022-09-30T16:26:55.739Z,19.83
2022-09-30T16:29:24.021Z,19.77
2022-09-30T16:31:54.110Z,19.75
2022-09-30T16:34:26.935Z,19.71
2022-09-30T16:36:55.505Z,19.70
2022-09-30T16:39:22.895Z,19.66
2022-09-30T16:41:54.074Z,19.68
2022-09-30T16:44:23.540Z,19.68
2022-09-30T16:46:51.737Z,19.68
2022-09-30T16:49:19.916Z,19.68
2022-09-30T16:51:47.323Z,19.68
2022-09-30T16:54:14.585Z,19.66
2022-09-30T16:56:42.471Z,19.63
2022-09-30T16:59:17.572Z,19.65
2022-09-30T17:01:45.135Z,19.63
2022-09-30T17:04:15.246Z,19.62
2022-09-30T17:06:46.153Z,19.60
2022-09-30T17:09:13.429Z,19.57
2022-09-30T17:11:42.857Z,19.54
2022-09-30T17:14:10.231Z,19.53
2022-09-30T17:16:38.213Z,19.52
2022-09-30T17:19:06.106Z,19.51
2022-09-30T17:21:33.494Z,19.50
2022-09-30T17:24:12.205Z,19.48
2022-09-30T17:26:40.593Z,19.47
2022-09-30T17:29:30.933Z,19.48
2022-09-30T17:31:58.500Z,19.48
2022-09-30T17:34:28.128Z,19.42
2022-09-30T17:36:56.572Z,19.41
2022-09-30T17:39:27.778Z,19.40
2022-09-30T17:42:13.577Z,19.42
2022-09-30T17:44:40.968Z,19.43
2022-09-30T17:47:08.173Z,19.41
2022-09-30T17:49:35.960Z,19.43
2022-09-30T17:52:05.632Z,19.42
2022-09-30T17:54:34.452Z,19.42
2022-09-30T17:57:04.458Z,19.47
2022-09-30T17:59:31.941Z,19.45
2022-09-30T18:01:59.564Z,19.47
2022-09-30T18:04:28.717Z,19.50
2022-09-30T18:06:56.912Z,19.47
2022-09-30T18:09:24.697Z,19.49
2022-09-30T18:11:53.785Z,19.50
2022-09-30T18:14:21.049Z,19.52
2022-09-30T18:16:48.327Z,19.62
2022-09-30T18:19:16.546Z,19.70
2022-09-30T18:21:43.909Z,19.74
2022-09-30T18:24:11.182Z,19.76
2022-09-30T18:26:41.611Z,19.78
2022-09-30T18:29:09.392Z,19.78
2022-09-30T18:31:39.727Z,19.80
2022-09-30T18:34:13.295Z,19.82
2022-09-30T18:36:42.521Z,19.80
2022-09-30T18:39:09.698Z,19.77
2022-09-30T18:41:43.134Z,19.72
2022-09-30T18:44:12.870Z,19.67
2022-09-30T18:46:42.977Z,19.63
2022-09-30T18:49:10.645Z,19.59
2022-09-30T18:51:38.293Z,19.55
2022-09-30T18:54:05.908Z,19.48
2022-09-30T18:56:33.619Z,19.40
2022-09-30T18:59:06.020Z,19.33
2022-09-30T19:01:34.079Z,19.24
2022-09-30T19:04:03.901Z,19.19
2022-09-30T19:06:32.151Z,19.12
2022-09-30T19:09:01.802Z,19.09
2022-09-30T19:11:30.751Z,19.06
2022-09-30T19:14:01.534Z,19.05
2022-09-30T19:16:35.270Z,19.04
2022-09-30T19:19:06.480Z,19.02
2022-09-30T19:21:36.357Z,19.02
2022-09-30T19:24:06.771Z,19.01
2022-09-30T19:26:36.791Z,18.96
2022-09-30T19:29:05.893Z,18.95
2022-09-30T19:31:35.942Z,18.92
2022-09-30T19:34:04.082Z,18.91
2022-09-30T19:36:40.610Z,18.92
2022-09-30T19:39:15.618Z,18.92
2022-09-30T19:41:44.630Z,18.94
2022-09-30T19:44:15.858Z,18.94
2022-09-30T19:46:43.110Z,18.92
2022-09-30T19:49:11.457Z,18.94
2022-09-30T19:51:38.952Z,18.97
2022-09-30T19:54:07.638Z,18.99
2022-09-30T19:56:36.987Z,18.98
2022-09-30T19:59:06.006Z,18.97
2022-09-30T20:01:34.886Z,18.94
2022-09-30T20:04:05.001Z,18.91
2022-09-30T20:06:34.320Z,18.84
2022-09-30T20:09:04.308Z,18.83
2022-09-30T20:11:36.192Z,18.80
2022-09-30T20:14:26.937Z,18.73
2022-09-30T20:16:54.909Z,18.69
2022-09-30T20:19:23.112Z,18.70
2022-09-30T20:21:50.774Z,18.69
2022-09-30T20:24:18.566Z,18.64
2022-09-30T20:26:50.205Z,18.60
2022-09-30T20:29:19.880Z,18.59
2022-09-30T20:31:49.302Z,18.56
2022-09-30T20:34:18.376Z,18.55
2022-09-30T20:36:45.912Z,18.53
2022-09-30T20:39:13.717Z,18.51
2022-09-30T20:41:41.841Z,18.51
2022-09-30T20:44:13.835Z,18.52
2022-09-30T20:46:41.996Z,18.49
2022-09-30T20:49:09.520Z,18.48
2022-09-30T20:51:38.165Z,18.46
2022-09-30T20:54:05.414Z,18.41
2022-09-30T20:56:50.068Z,18.38
2022-09-30T20:59:20.451Z,18.36
2022-09-30T21:01:47.852Z,18.35
2022-09-30T21:04:15.303Z,18.30
2022-09-30T21:06:42.721Z,18.30
2022-09-30T21:09:13.393Z,18.27
2022-09-30T21:11:42.451Z,18.24
2022-09-30T21:14:10.090Z,18.20
2022-09-30T21:16:37.707Z,18.22
2022-09-30T21:19:05.827Z,18.20
2022-09-30T21:21:36.516Z,18.17
2022-09-30T21:24:03.959Z,18.15
2022-09-30T21:26:31.179Z,18.11
2022-09-30T21:28:59.986Z,18.05
2022-09-30T21:31:28.575Z,18.02
2022-09-30T21:33:59.903Z,17.98
2022-09-30T21:36:28.194Z,17.95
2022-09-30T21:39:01.315Z,17.95
2022-09-30T21:41:33.607Z,17.94
2022-09-30T21:44:03.194Z,17.93
2022-09-30T21:46:30.625Z,17.94
2022-09-30T21:49:14.339Z,17.93
2022-09-30T21:51:41.992Z,17.91
2022-09-30T21:54:10.161Z,17.90
2022-09-30T21:56:38.992Z,17.87
2022-09-30T21:59:06.881Z,17.86
2022-09-30T22:01:34.698Z,17.85
2022-09-30T22:04:03.212Z,17.88
2022-09-30T22:06:31.337Z,17.89
2022-09-30T22:09:01.842Z,17.88
2022-09-30T22:11:31.393Z,17.87
2022-09-30T22:14:03.946Z,17.86
2022-09-30T22:16:35.012Z,17.88
2022-09-30T22:19:05.001Z,17.86
2022-09-30T22:21:34.291Z,17.83
2022-09-30T22:24:04.146Z,17.83
2022-09-30T22:26:32.945Z,17.82
2022-09-30T22:29:06.198Z,17.80
2022-09-30T22:31:34.091Z,17.80
2022-09-30T22:34:22.101Z,17.82
2022-09-30T22:37:07.613Z,17.83
2022-09-30T22:39:35.336Z,17.81
2022-09-30T22:42:03.320Z,17.80
2022-09-30T22:44:35.619Z,17.77
2022-09-30T22:47:03.621Z,17.77
2022-09-30T22:49:34.366Z,17.73
2022-09-30T22:52:03.704Z,17.71
2022-09-30T22:54:31.177Z,17.68
2022-09-30T22:57:01.244Z,17.68
2022-09-30T22:59:29.352Z,17.56
2022-09-30T23:01:57.230Z,17.48
2022-09-30T23:04:26.065Z,17.44
2022-09-30T23:06:55.396Z,17.42
2022-09-30T23:09:23.556Z,17.38
2022-09-30T23:11:55.013Z,17.36
2022-09-30T23:14:22.866Z,17.35
2022-09-30T23:16:50.827Z,17.34
2022-09-30T23:19:18.828Z,17.33
2022-09-30T23:21:46.263Z,17.32
2022-09-30T23:24:15.746Z,17.31
2022-09-30T23:26:43.621Z,17.28
2022-09-30T23:29:12.757Z,17.29
2022-09-30T23:31:40.712Z,17.26
2022-09-30T23:34:08.079Z,17.25
2022-09-30T23:36:37.237Z,17.26
2022-09-30T23:39:12.606Z,17.25
2022-09-30T23:41:40.143Z,17.27
2022-09-30T23:44:09.693Z,17.26
2022-09-30T23:46:37.069Z,17.25
2022-09-30T23:49:05.867Z,17.25
2022-09-30T23:51:34.374Z,17.23
2022-09-30T23:54:05.551Z,17.24
2022-09-30T23:56:33.508Z,17.25
2022-09-30T23:59:00.730Z,17.27
